Tracyton, Washington
Current Conditions -  °F | °C
As of 11:35 PM on Saturday 22 Nov 2014 (Local Time) from KPWT Reporting Station
Scattered Clouds Scattered Clouds  
Wind Chill: 37°   Ceiling: Unl
Heat Index: 43°   Visibility: 10mi
Dew Point: 43°   Wind: 12mph
Humidity: 100%   Direction: 200°SSW
Pressure: 30.14"   Gusts: 18mph
Location:  47.61°N, 122.66°W
Report Text: KPWT 230735Z AUTO 20010G16KT 10SM SCT006 06/06 A3014 RMK AO1
Loading
Personal Weather Stations






























Interactive Weather Map New forecast layout! Learn more

10-Day Weather Forecast

Advertisements
Track Severe Weather on mobile